PWSweather.com
Personal Weather Stations
Station Observations
IPORTUGA89
BarosaPT

BarosaPT

Lat: 39.754028, Lon: -8.843

Elevation: 98

Station Type: Davis Vp2

High Low Average
Temperature 57.2°F14.0°C 45.5°F7.5°C 50.8°F10.4°C
Dew Point 49.3°F9.6°C 38.5°F3.6°C 44.1°F6.7°C
Winds 16.1 mph 25.9 kmh Calm Calm 7.0 mph W11.3 kmh W
Wind Gusts 31.1 mph50.1 kmh -- 14.0 mph22.5 kmh
Humidity 94% 61% 79%
Pressure 30.21 in1023.0 mb 30.05 in1017.6 mb -
Precipitation 0.02 in0.5 mm - -
Hour Temp Dew Point Humidity Winds Wind Gusts Pressure Precip Precip Rate Daily Precip Total
12:01 AM 50.9°F10.5°C 46.6°F8.1°C 85% 0.9 mph N1.4 kmh N 2.0 mph3.2 kmh 30.21 in1023.0 mb 0.00 in0.0 mm 0.00 in0.0 mm 0.00 in0.0 mm
12:11 AM 50.7°F10.4°C 46.8°F8.2°C 86% Calm Calm 2.0 mph3.2 kmh 30.21 in1023.0 mb 0.00 in0.0 mm 0.00 in0.0 mm 0.00 in0.0 mm
12:21 AM 50.5°F10.3°C 46.6°F8.1°C 86% 0.9 mph N1.4 kmh N 2.9 mph4.7 kmh 30.21 in1023.0 mb 0.00 in0.0 mm 0.00 in0.0 mm 0.00 in0.0 mm
12:31 AM 50.4°F10.2°C 46.6°F8.1°C 87% 0.9 mph N1.4 kmh N 2.0 mph3.2 kmh 30.20 in1022.7 mb 0.00 in0.0 mm 0.00 in0.0 mm 0.00 in0.0 mm
12:41 AM 50.4°F10.2°C 46.6°F8.1°C 87% 0.9 mph N1.4 kmh N 2.9 mph4.7 kmh 30.20 in1022.7 mb 0.00 in0.0 mm 0.00 in0.0 mm 0.00 in0.0 mm
12:51 AM 50.2°F10.1°C 46.4°F8.0°C 87% Calm Calm -- 30.19 in1022.4 mb 0.00 in0.0 mm 0.00 in0.0 mm 0.00 in0.0 mm
01:01 AM 49.5°F9.7°C 45.7°F7.6°C 87% Calm Calm -- 30.19 in1022.4 mb 0.00 in0.0 mm 0.00 in0.0 mm 0.00 in0.0 mm
01:12 AM 48.4°F9.1°C 44.8°F7.1°C 87% Calm Calm -- 30.18 in1022.0 mb 0.00 in0.0 mm 0.00 in0.0 mm 0.00 in0.0 mm
01:22 AM 47.7°F8.7°C 44.6°F7.0°C 89% Calm Calm -- 30.17 in1021.7 mb 0.00 in0.0 mm 0.00 in0.0 mm 0.00 in0.0 mm
01:32 AM 47.1°F8.4°C 44.1°F6.7°C 89% Calm Calm -- 30.17 in1021.7 mb 0.00 in0.0 mm 0.00 in0.0 mm 0.00 in0.0 mm
01:42 AM 46.8°F8.2°C 44.1°F6.7°C 90% Calm Calm -- 30.17 in1021.7 mb 0.00 in0.0 mm 0.00 in0.0 mm 0.00 in0.0 mm
01:52 AM 46.2°F7.9°C 43.5°F6.4°C 90% Calm Calm -- 30.18 in1022.0 mb 0.00 in0.0 mm 0.00 in0.0 mm 0.00 in0.0 mm
02:02 AM 45.7°F7.6°C 43.2°F6.2°C 91% Calm Calm -- 30.18 in1022.0 mb 0.00 in0.0 mm 0.00 in0.0 mm 0.00 in0.0 mm
02:13 AM 45.5°F7.5°C 43.0°F6.1°C 91% Calm Calm -- 30.17 in1021.7 mb 0.00 in0.0 mm 0.00 in0.0 mm 0.00 in0.0 mm
02:23 AM 46.0°F7.8°C 43.9°F6.6°C 92% Calm Calm -- 30.16 in1021.3 mb 0.00 in0.0 mm 0.00 in0.0 mm 0.00 in0.0 mm
02:33 AM 46.2°F7.9°C 44.1°F6.7°C 92% Calm Calm -- 30.17 in1021.7 mb 0.00 in0.0 mm 0.00 in0.0 mm 0.00 in0.0 mm
02:43 AM 46.4°F8.0°C 44.2°F6.8°C 92% Calm Calm -- 30.16 in1021.3 mb 0.00 in0.0 mm 0.00 in0.0 mm 0.00 in0.0 mm
02:53 AM 46.4°F8.0°C 44.2°F6.8°C 92% Calm Calm -- 30.16 in1021.3 mb 0.00 in0.0 mm 0.00 in0.0 mm 0.00 in0.0 mm
03:03 AM 46.2°F7.9°C 44.1°F6.7°C 92% Calm Calm -- 30.16 in1021.3 mb 0.00 in0.0 mm 0.00 in0.0 mm 0.00 in0.0 mm
03:13 AM 45.9°F7.7°C 43.7°F6.5°C 92% Calm Calm -- 30.16 in1021.3 mb 0.00 in0.0 mm 0.00 in0.0 mm 0.00 in0.0 mm
03:23 AM 46.0°F7.8°C 44.1°F6.7°C 93% Calm Calm -- 30.16 in1021.3 mb 0.00 in0.0 mm 0.00 in0.0 mm 0.00 in0.0 mm
03:34 AM 46.0°F7.8°C 44.1°F6.7°C 93% Calm Calm -- 30.16 in1021.3 mb 0.00 in0.0 mm 0.00 in0.0 mm 0.00 in0.0 mm
03:44 AM 46.2°F7.9°C 44.2°F6.8°C 93% Calm Calm -- 30.15 in1021.0 mb 0.00 in0.0 mm 0.00 in0.0 mm 0.00 in0.0 mm
03:54 AM 46.6°F8.1°C 44.6°F7.0°C 93% Calm Calm -- 30.15 in1021.0 mb 0.00 in0.0 mm 0.00 in0.0 mm 0.00 in0.0 mm
04:04 AM 46.8°F8.2°C 44.8°F7.1°C 93% Calm Calm -- 30.15 in1021.0 mb 0.00 in0.0 mm 0.00 in0.0 mm 0.00 in0.0 mm
04:14 AM 46.8°F8.2°C 44.8°F7.1°C 93% Calm Calm -- 30.15 in1021.0 mb 0.00 in0.0 mm 0.00 in0.0 mm 0.00 in0.0 mm
04:24 AM 46.8°F8.2°C 44.8°F7.1°C 93% Calm Calm -- 30.15 in1021.0 mb 0.00 in0.0 mm 0.00 in0.0 mm 0.00 in0.0 mm
04:34 AM 46.8°F8.2°C 44.8°F7.1°C 93% Calm Calm -- 30.15 in1021.0 mb 0.00 in0.0 mm 0.00 in0.0 mm 0.00 in0.0 mm
04:45 AM 46.6°F8.1°C 44.6°F7.0°C 93% Calm Calm -- 30.15 in1021.0 mb 0.00 in0.0 mm 0.00 in0.0 mm 0.00 in0.0 mm
04:55 AM 47.7°F8.7°C 46.0°F7.8°C 94% Calm Calm -- 30.15 in1021.0 mb 0.00 in0.0 mm 0.00 in0.0 mm 0.00 in0.0 mm
05:05 AM 49.1°F9.5°C 47.5°F8.6°C 94% Calm Calm 4.9 mph7.9 kmh 30.15 in1021.0 mb 0.00 in0.0 mm 0.00 in0.0 mm 0.00 in0.0 mm
05:15 AM 49.5°F9.7°C 47.8°F8.8°C 94% Calm Calm -- 30.14 in1020.7 mb 0.00 in0.0 mm 0.00 in0.0 mm 0.00 in0.0 mm
05:25 AM 49.6°F9.8°C 48.0°F8.9°C 94% Calm Calm -- 30.14 in1020.7 mb 0.00 in0.0 mm 0.00 in0.0 mm 0.00 in0.0 mm
05:35 AM 49.1°F9.5°C 47.1°F8.4°C 93% Calm Calm -- 30.14 in1020.7 mb 0.00 in0.0 mm 0.00 in0.0 mm 0.00 in0.0 mm
05:45 AM 49.3°F9.6°C 47.3°F8.5°C 93% Calm Calm -- 30.14 in1020.7 mb 0.00 in0.0 mm 0.00 in0.0 mm 0.00 in0.0 mm
05:56 AM 49.6°F9.8°C 47.7°F8.7°C 93% Calm Calm -- 30.14 in1020.7 mb 0.00 in0.0 mm 0.00 in0.0 mm 0.00 in0.0 mm
06:06 AM 49.6°F9.8°C 47.7°F8.7°C 93% Calm Calm -- 30.14 in1020.7 mb 0.00 in0.0 mm 0.00 in0.0 mm 0.00 in0.0 mm
06:16 AM 49.8°F9.9°C 47.8°F8.8°C 93% Calm Calm -- 30.14 in1020.7 mb 0.00 in0.0 mm 0.00 in0.0 mm 0.00 in0.0 mm
06:26 AM 49.6°F9.8°C 47.7°F8.7°C 93% Calm Calm -- 30.14 in1020.7 mb 0.00 in0.0 mm 0.00 in0.0 mm 0.00 in0.0 mm
06:36 AM 49.1°F9.5°C 46.9°F8.3°C 92% Calm Calm -- 30.13 in1020.3 mb 0.00 in0.0 mm 0.00 in0.0 mm 0.00 in0.0 mm
06:46 AM 48.6°F9.2°C 46.4°F8.0°C 92% Calm Calm -- 30.13 in1020.3 mb 0.00 in0.0 mm 0.00 in0.0 mm 0.00 in0.0 mm
06:56 AM 48.0°F8.9°C 45.9°F7.7°C 92% Calm Calm -- 30.14 in1020.7 mb 0.00 in0.0 mm 0.00 in0.0 mm 0.00 in0.0 mm
07:06 AM 48.6°F9.2°C 46.6°F8.1°C 93% 0.9 mph N1.4 kmh N 6.0 mph9.7 kmh 30.14 in1020.7 mb 0.00 in0.0 mm 0.00 in0.0 mm 0.00 in0.0 mm
07:16 AM 49.6°F9.8°C 47.7°F8.7°C 93% 2.9 mph NE4.7 kmh NE 12.1 mph19.5 kmh 30.14 in1020.7 mb 0.00 in0.0 mm 0.00 in0.0 mm 0.00 in0.0 mm
07:27 AM 50.4°F10.2°C 48.4°F9.1°C 93% 4.0 mph N6.4 kmh N 10.1 mph16.3 kmh 30.14 in1020.7 mb 0.00 in0.0 mm 0.00 in0.0 mm 0.00 in0.0 mm
07:37 AM 51.3°F10.7°C 49.1°F9.5°C 92% 8.1 mph N13.0 kmh N 17.0 mph27.4 kmh 30.14 in1020.7 mb 0.00 in0.0 mm 0.00 in0.0 mm 0.00 in0.0 mm
07:47 AM 51.8°F11.0°C 49.3°F9.6°C 91% 8.1 mph N13.0 kmh N 16.1 mph25.9 kmh 30.14 in1020.7 mb 0.00 in0.0 mm 0.00 in0.0 mm 0.00 in0.0 mm
07:57 AM 52.0°F11.1°C 48.9°F9.4°C 89% 10.1 mph NNW16.3 kmh NNW 19.0 mph30.6 kmh 30.14 in1020.7 mb 0.00 in0.0 mm 0.00 in0.0 mm 0.00 in0.0 mm
08:07 AM 52.2°F11.2°C 48.0°F8.9°C 86% 11.0 mph NNW17.7 kmh NNW 19.9 mph32.0 kmh 30.14 in1020.7 mb 0.00 in0.0 mm 0.00 in0.0 mm 0.00 in0.0 mm
08:17 AM 52.3°F11.3°C 48.2°F9.0°C 86% 6.9 mph N11.1 kmh N 14.1 mph22.7 kmh 30.14 in1020.7 mb 0.00 in0.0 mm 0.00 in0.0 mm 0.00 in0.0 mm
08:27 AM 52.3°F11.3°C 48.2°F9.0°C 86% 6.9 mph NNW11.1 kmh NNW 14.1 mph22.7 kmh 30.14 in1020.7 mb 0.00 in0.0 mm 0.00 in0.0 mm 0.00 in0.0 mm
08:37 AM 52.9°F11.6°C 48.7°F9.3°C 86% 4.9 mph N7.9 kmh N 12.1 mph19.5 kmh 30.14 in1020.7 mb 0.00 in0.0 mm 0.00 in0.0 mm 0.00 in0.0 mm
08:47 AM 53.2°F11.8°C 48.6°F9.2°C 84% 6.0 mph N9.7 kmh N 16.1 mph25.9 kmh 30.14 in1020.7 mb 0.00 in0.0 mm 0.00 in0.0 mm 0.00 in0.0 mm
08:57 AM 53.1°F11.7°C 48.4°F9.1°C 84% 6.9 mph NW11.1 kmh NW 13.0 mph20.9 kmh 30.15 in1021.0 mb 0.00 in0.0 mm 0.00 in0.0 mm 0.00 in0.0 mm
09:07 AM 53.1°F11.7°C 48.4°F9.1°C 84% 8.9 mph NNW14.3 kmh NNW 15.0 mph24.1 kmh 30.15 in1021.0 mb 0.00 in0.0 mm 0.00 in0.0 mm 0.00 in0.0 mm
09:17 AM 53.1°F11.7°C 48.0°F8.9°C 83% 10.1 mph N16.3 kmh N 17.9 mph28.8 kmh 30.15 in1021.0 mb 0.00 in0.0 mm 0.00 in0.0 mm 0.00 in0.0 mm
09:27 AM 53.2°F11.8°C 47.5°F8.6°C 81% 12.1 mph N19.5 kmh N 23.9 mph38.5 kmh 30.15 in1021.0 mb 0.00 in0.0 mm 0.00 in0.0 mm 0.00 in0.0 mm
09:37 AM 53.4°F11.9°C 46.8°F8.2°C 78% 10.1 mph N16.3 kmh N 21.0 mph33.8 kmh 30.15 in1021.0 mb 0.00 in0.0 mm 0.00 in0.0 mm 0.00 in0.0 mm
09:47 AM 53.8°F12.1°C 45.7°F7.6°C 74% 11.0 mph N17.7 kmh N 21.9 mph35.2 kmh 30.15 in1021.0 mb 0.00 in0.0 mm 0.00 in0.0 mm 0.00 in0.0 mm
09:57 AM 54.0°F12.2°C 44.8°F7.1°C 71% 11.0 mph NW17.7 kmh NW 21.9 mph35.2 kmh 30.15 in1021.0 mb 0.00 in0.0 mm 0.00 in0.0 mm 0.00 in0.0 mm
10:07 AM 54.5°F12.5°C 44.6°F7.0°C 69% 10.1 mph N16.3 kmh N 19.0 mph30.6 kmh 30.15 in1021.0 mb 0.00 in0.0 mm 0.00 in0.0 mm 0.00 in0.0 mm
10:17 AM 54.7°F12.6°C 43.9°F6.6°C 67% 11.0 mph NNW17.7 kmh NNW 21.0 mph33.8 kmh 30.16 in1021.3 mb 0.00 in0.0 mm 0.00 in0.0 mm 0.00 in0.0 mm
10:27 AM 54.9°F12.7°C 44.4°F6.9°C 68% 10.1 mph NW16.3 kmh NW 21.0 mph33.8 kmh 30.16 in1021.3 mb 0.00 in0.0 mm 0.00 in0.0 mm 0.00 in0.0 mm
10:37 AM 55.0°F12.8°C 45.1°F7.3°C 69% 8.9 mph NNE14.3 kmh NNE 16.1 mph25.9 kmh 30.16 in1021.3 mb 0.00 in0.0 mm 0.00 in0.0 mm 0.00 in0.0 mm
10:47 AM 55.2°F12.9°C 45.7°F7.6°C 70% 10.1 mph NNE16.3 kmh NNE 19.0 mph30.6 kmh 30.15 in1021.0 mb 0.00 in0.0 mm 0.00 in0.0 mm 0.00 in0.0 mm
10:57 AM 55.9°F13.3°C 44.4°F6.9°C 65% 11.0 mph NE17.7 kmh NE 19.9 mph32.0 kmh 30.15 in1021.0 mb 0.00 in0.0 mm 0.00 in0.0 mm 0.00 in0.0 mm
11:07 AM 56.5°F13.6°C 43.7°F6.5°C 62% 12.1 mph N19.5 kmh N 27.1 mph43.6 kmh 30.15 in1021.0 mb 0.00 in0.0 mm 0.00 in0.0 mm 0.00 in0.0 mm
11:17 AM 56.1°F13.4°C 42.8°F6.0°C 61% 15.0 mph NNW24.1 kmh NNW 25.1 mph40.4 kmh 30.15 in1021.0 mb 0.00 in0.0 mm 0.00 in0.0 mm 0.00 in0.0 mm
11:27 AM 55.6°F13.1°C 42.8°F6.0°C 62% 12.1 mph N19.5 kmh N 21.0 mph33.8 kmh 30.16 in1021.3 mb 0.00 in0.0 mm 0.00 in0.0 mm 0.00 in0.0 mm
11:37 AM 55.8°F13.2°C 42.4°F5.8°C 61% 11.0 mph NNW17.7 kmh NNW 21.0 mph33.8 kmh 30.15 in1021.0 mb 0.00 in0.0 mm 0.00 in0.0 mm 0.00 in0.0 mm
11:47 AM 55.6°F13.1°C 42.8°F6.0°C 62% 12.1 mph NNW19.5 kmh NNW 21.9 mph35.2 kmh 30.16 in1021.3 mb 0.00 in0.0 mm 0.00 in0.0 mm 0.00 in0.0 mm
11:57 AM 56.1°F13.4°C 43.7°F6.5°C 63% 14.1 mph NW22.7 kmh NW 25.9 mph41.7 kmh 30.15 in1021.0 mb 0.00 in0.0 mm 0.00 in0.0 mm 0.00 in0.0 mm
12:07 PM 55.9°F13.3°C 43.5°F6.4°C 63% 14.1 mph NNE22.7 kmh NNE 25.9 mph41.7 kmh 30.14 in1020.7 mb 0.00 in0.0 mm 0.00 in0.0 mm 0.00 in0.0 mm
12:17 PM 55.9°F13.3°C 43.9°F6.6°C 64% 14.1 mph N22.7 kmh N 23.0 mph37.0 kmh 30.14 in1020.7 mb 0.00 in0.0 mm 0.00 in0.0 mm 0.00 in0.0 mm
12:27 PM 55.4°F13.0°C 43.3°F6.3°C 64% 13.0 mph N20.9 kmh N 25.1 mph40.4 kmh 30.14 in1020.7 mb 0.00 in0.0 mm 0.00 in0.0 mm 0.00 in0.0 mm
12:37 PM 55.0°F12.8°C 43.5°F6.4°C 65% 15.0 mph 24.1 kmh 23.9 mph38.5 kmh 30.14 in1020.7 mb 0.00 in0.0 mm 0.00 in0.0 mm 0.00 in0.0 mm
12:47 PM 54.7°F12.6°C 43.9°F6.6°C 67% 12.1 mph N19.5 kmh N 28.0 mph45.1 kmh 30.14 in1020.7 mb 0.00 in0.0 mm 0.00 in0.0 mm 0.00 in0.0 mm
12:57 PM 55.2°F12.9°C 44.8°F7.1°C 68% 13.0 mph NW20.9 kmh NW 25.1 mph40.4 kmh 30.13 in1020.3 mb 0.00 in0.0 mm 0.00 in0.0 mm 0.00 in0.0 mm
01:07 PM 55.8°F13.2°C 44.6°F7.0°C 66% 14.1 mph NW22.7 kmh NW 23.0 mph37.0 kmh 30.12 in1020.0 mb 0.00 in0.0 mm 0.00 in0.0 mm 0.00 in0.0 mm
01:17 PM 55.9°F13.3°C 43.5°F6.4°C 63% 13.0 mph N20.9 kmh N 25.1 mph40.4 kmh 30.11 in1019.6 mb 0.00 in0.0 mm 0.00 in0.0 mm 0.00 in0.0 mm
01:27 PM 56.7°F13.7°C 43.3°F6.3°C 61% 14.1 mph N22.7 kmh N 30.0 mph48.3 kmh 30.11 in1019.6 mb 0.00 in0.0 mm 0.00 in0.0 mm 0.00 in0.0 mm
01:37 PM 57.2°F14.0°C 43.9°F6.6°C 61% 13.0 mph 20.9 kmh 25.9 mph41.7 kmh 30.10 in1019.3 mb 0.00 in0.0 mm 0.00 in0.0 mm 0.00 in0.0 mm
01:47 PM 56.7°F13.7°C 43.7°F6.5°C 62% 15.0 mph NW24.1 kmh NW 27.1 mph43.6 kmh 30.10 in1019.3 mb 0.00 in0.0 mm 0.00 in0.0 mm 0.00 in0.0 mm
01:57 PM 57.0°F13.9°C 43.7°F6.5°C 61% 13.0 mph NW20.9 kmh NW 27.1 mph43.6 kmh 30.09 in1019.0 mb 0.00 in0.0 mm 0.00 in0.0 mm 0.00 in0.0 mm
02:07 PM 55.9°F13.3°C 43.5°F6.4°C 63% 16.1 mph N25.9 kmh N 30.0 mph48.3 kmh 30.09 in1019.0 mb 0.00 in0.0 mm 0.00 in0.0 mm 0.00 in0.0 mm
02:17 PM 55.8°F13.2°C 44.2°F6.8°C 65% 14.1 mph NW22.7 kmh NW 27.1 mph43.6 kmh 30.08 in1018.6 mb 0.00 in0.0 mm 0.00 in0.0 mm 0.00 in0.0 mm
02:27 PM 55.6°F13.1°C 43.5°F6.4°C 64% 15.0 mph N24.1 kmh N 27.1 mph43.6 kmh 30.08 in1018.6 mb 0.00 in0.0 mm 0.00 in0.0 mm 0.00 in0.0 mm
02:37 PM 54.7°F12.6°C 43.2°F6.2°C 65% 14.1 mph N22.7 kmh N 25.1 mph40.4 kmh 30.08 in1018.6 mb 0.00 in0.0 mm 0.00 in0.0 mm 0.00 in0.0 mm
02:47 PM 54.0°F12.2°C 43.3°F6.3°C 67% 14.1 mph NNW22.7 kmh NNW 28.0 mph45.1 kmh 30.08 in1018.6 mb 0.00 in0.0 mm 0.00 in0.0 mm 0.00 in0.0 mm
02:57 PM 54.0°F12.2°C 43.3°F6.3°C 67% 15.0 mph NNW24.1 kmh NNW 31.1 mph50.1 kmh 30.06 in1017.9 mb 0.00 in0.0 mm 0.00 in0.0 mm 0.00 in0.0 mm
03:07 PM 54.3°F12.4°C 44.4°F6.9°C 69% 14.1 mph 22.7 kmh 25.1 mph40.4 kmh 30.06 in1017.9 mb 0.00 in0.0 mm 0.00 in0.0 mm 0.00 in0.0 mm
03:17 PM 54.3°F12.4°C 45.1°F7.3°C 71% 11.0 mph NNW17.7 kmh NNW 25.1 mph40.4 kmh 30.06 in1017.9 mb 0.00 in0.0 mm 0.00 in0.0 mm 0.00 in0.0 mm
03:27 PM 54.7°F12.6°C 44.8°F7.1°C 69% 10.1 mph NW16.3 kmh NW 23.0 mph37.0 kmh 30.06 in1017.9 mb 0.00 in0.0 mm 0.00 in0.0 mm 0.00 in0.0 mm
03:37 PM 54.7°F12.6°C 44.2°F6.8°C 68% 14.1 mph N22.7 kmh N 25.1 mph40.4 kmh 30.05 in1017.6 mb 0.00 in0.0 mm 0.00 in0.0 mm 0.00 in0.0 mm
03:47 PM 54.7°F12.6°C 43.9°F6.6°C 67% 13.0 mph N20.9 kmh N 25.9 mph41.7 kmh 30.06 in1017.9 mb 0.00 in0.0 mm 0.00 in0.0 mm 0.00 in0.0 mm
03:57 PM 54.3°F12.4°C 44.1°F6.7°C 68% 14.1 mph NW22.7 kmh NW 25.1 mph40.4 kmh 30.06 in1017.9 mb 0.00 in0.0 mm 0.00 in0.0 mm 0.00 in0.0 mm
04:07 PM 54.3°F12.4°C 44.1°F6.7°C 68% 15.0 mph NNW24.1 kmh NNW 25.9 mph41.7 kmh 30.06 in1017.9 mb 0.00 in0.0 mm 0.00 in0.0 mm 0.00 in0.0 mm
04:17 PM 54.0°F12.2°C 44.1°F6.7°C 69% 14.1 mph N22.7 kmh N 29.1 mph46.8 kmh 30.06 in1017.9 mb 0.00 in0.0 mm 0.00 in0.0 mm 0.00 in0.0 mm
04:27 PM 53.4°F11.9°C 43.9°F6.6°C 70% 11.0 mph NW17.7 kmh NW 28.0 mph45.1 kmh 30.06 in1017.9 mb 0.00 in0.0 mm 0.00 in0.0 mm 0.00 in0.0 mm
04:37 PM 52.7°F11.5°C 43.9°F6.6°C 72% 11.0 mph WNW17.7 kmh WNW 23.9 mph38.5 kmh 30.05 in1017.6 mb 0.00 in0.0 mm 0.00 in0.0 mm 0.00 in0.0 mm
04:47 PM 52.2°F11.2°C 44.8°F7.1°C 76% 13.0 mph NNW20.9 kmh NNW 29.1 mph46.8 kmh 30.07 in1018.3 mb 0.02 in0.5 mm 0.12 in3.0 mm 0.02 in0.5 mm
04:57 PM 50.4°F10.2°C 44.4°F6.9°C 80% 11.0 mph NW17.7 kmh NW 23.9 mph38.5 kmh 30.06 in1017.9 mb 0.02 in0.5 mm 0.00 in0.0 mm 0.02 in0.5 mm
05:07 PM 49.6°F9.8°C 44.1°F6.7°C 81% 6.9 mph N11.1 kmh N 15.0 mph24.1 kmh 30.06 in1017.9 mb 0.02 in0.5 mm 0.00 in0.0 mm 0.02 in0.5 mm
05:17 PM 49.6°F9.8°C 44.4°F6.9°C 82% 8.9 mph NNW14.3 kmh NNW 19.0 mph30.6 kmh 30.06 in1017.9 mb 0.02 in0.5 mm 0.00 in0.0 mm 0.02 in0.5 mm
05:27 PM 49.6°F9.8°C 43.3°F6.3°C 79% 8.9 mph NW14.3 kmh NW 17.9 mph28.8 kmh 30.06 in1017.9 mb 0.02 in0.5 mm 0.00 in0.0 mm 0.02 in0.5 mm
05:37 PM 49.8°F9.9°C 43.5°F6.4°C 79% 8.9 mph WNW14.3 kmh WNW 17.9 mph28.8 kmh 30.06 in1017.9 mb 0.02 in0.5 mm 0.00 in0.0 mm 0.02 in0.5 mm
05:47 PM 49.8°F9.9°C 43.9°F6.6°C 80% 8.9 mph N14.3 kmh N 15.0 mph24.1 kmh 30.06 in1017.9 mb 0.01 in0.3 mm 0.00 in0.0 mm 0.02 in0.5 mm
05:57 PM 50.2°F10.1°C 43.9°F6.6°C 79% 8.9 mph N14.3 kmh N 17.0 mph27.4 kmh 30.06 in1017.9 mb 0.00 in0.0 mm 0.00 in0.0 mm 0.02 in0.5 mm
06:07 PM 50.4°F10.2°C 43.3°F6.3°C 77% 10.1 mph N16.3 kmh N 19.9 mph32.0 kmh 30.06 in1017.9 mb 0.00 in0.0 mm 0.00 in0.0 mm 0.02 in0.5 mm
06:17 PM 50.4°F10.2°C 43.3°F6.3°C 77% 10.1 mph N16.3 kmh N 19.0 mph30.6 kmh 30.06 in1017.9 mb 0.00 in0.0 mm 0.00 in0.0 mm 0.02 in0.5 mm
06:27 PM 50.4°F10.2°C 42.8°F6.0°C 75% 11.0 mph N17.7 kmh N 19.9 mph32.0 kmh 30.06 in1017.9 mb 0.00 in0.0 mm 0.00 in0.0 mm 0.02 in0.5 mm
06:37 PM 50.4°F10.2°C 42.8°F6.0°C 75% 10.1 mph NNW16.3 kmh NNW 19.9 mph32.0 kmh 30.06 in1017.9 mb 0.00 in0.0 mm 0.00 in0.0 mm 0.02 in0.5 mm
06:47 PM 50.2°F10.1°C 43.0°F6.1°C 76% 11.0 mph N17.7 kmh N 19.9 mph32.0 kmh 30.06 in1017.9 mb 0.00 in0.0 mm 0.00 in0.0 mm 0.02 in0.5 mm
06:57 PM 50.0°F10.0°C 43.2°F6.2°C 77% 11.0 mph NW17.7 kmh NW 19.9 mph32.0 kmh 30.06 in1017.9 mb 0.00 in0.0 mm 0.00 in0.0 mm 0.02 in0.5 mm
07:07 PM 49.8°F9.9°C 43.5°F6.4°C 79% 11.0 mph N17.7 kmh N 21.0 mph33.8 kmh 30.06 in1017.9 mb 0.00 in0.0 mm 0.00 in0.0 mm 0.02 in0.5 mm
07:17 PM 49.8°F9.9°C 43.0°F6.1°C 77% 10.1 mph N16.3 kmh N 16.1 mph25.9 kmh 30.07 in1018.3 mb 0.00 in0.0 mm 0.00 in0.0 mm 0.02 in0.5 mm
07:27 PM 49.6°F9.8°C 42.1°F5.6°C 75% 8.9 mph N14.3 kmh N 17.9 mph28.8 kmh 30.07 in1018.3 mb 0.00 in0.0 mm 0.00 in0.0 mm 0.02 in0.5 mm
07:37 PM 49.6°F9.8°C 41.7°F5.4°C 74% 8.9 mph N14.3 kmh N 16.1 mph25.9 kmh 30.07 in1018.3 mb 0.00 in0.0 mm 0.00 in0.0 mm 0.02 in0.5 mm
07:47 PM 49.5°F9.7°C 41.2°F5.1°C 73% 6.9 mph N11.1 kmh N 19.9 mph32.0 kmh 30.07 in1018.3 mb 0.00 in0.0 mm 0.00 in0.0 mm 0.02 in0.5 mm
07:57 PM 49.5°F9.7°C 40.8°F4.9°C 72% 10.1 mph N16.3 kmh N 19.9 mph32.0 kmh 30.07 in1018.3 mb 0.00 in0.0 mm 0.00 in0.0 mm 0.02 in0.5 mm
08:07 PM 49.5°F9.7°C 40.5°F4.7°C 71% 8.9 mph NNE14.3 kmh NNE 16.1 mph25.9 kmh 30.08 in1018.6 mb 0.00 in0.0 mm 0.00 in0.0 mm 0.02 in0.5 mm
08:17 PM 48.7°F9.3°C 40.8°F4.9°C 74% 13.0 mph N20.9 kmh N 25.9 mph41.7 kmh 30.07 in1018.3 mb 0.00 in0.0 mm 0.00 in0.0 mm 0.02 in0.5 mm
08:27 PM 47.7°F8.7°C 41.2°F5.1°C 78% 10.1 mph N16.3 kmh N 21.9 mph35.2 kmh 30.07 in1018.3 mb 0.00 in0.0 mm 0.00 in0.0 mm 0.02 in0.5 mm
08:37 PM 47.5°F8.6°C 41.5°F5.3°C 80% 8.9 mph NNW14.3 kmh NNW 17.0 mph27.4 kmh 30.07 in1018.3 mb 0.00 in0.0 mm 0.00 in0.0 mm 0.02 in0.5 mm
08:47 PM 47.5°F8.6°C 41.9°F5.5°C 81% 6.9 mph N11.1 kmh N 15.0 mph24.1 kmh 30.07 in1018.3 mb 0.00 in0.0 mm 0.00 in0.0 mm 0.02 in0.5 mm
08:57 PM 47.5°F8.6°C 41.9°F5.5°C 81% 6.9 mph NW11.1 kmh NW 12.1 mph19.5 kmh 30.08 in1018.6 mb 0.00 in0.0 mm 0.00 in0.0 mm 0.02 in0.5 mm
09:07 PM 47.5°F8.6°C 42.3°F5.7°C 82% 6.9 mph NNW11.1 kmh NNW 13.0 mph20.9 kmh 30.08 in1018.6 mb 0.00 in0.0 mm 0.00 in0.0 mm 0.02 in0.5 mm
09:17 PM 47.8°F8.8°C 41.9°F5.5°C 80% 8.9 mph NNW14.3 kmh NNW 16.1 mph25.9 kmh 30.08 in1018.6 mb 0.00 in0.0 mm 0.00 in0.0 mm 0.02 in0.5 mm
09:27 PM 47.8°F8.8°C 41.0°F5.0°C 77% 8.1 mph NW13.0 kmh NW 14.1 mph22.7 kmh 30.08 in1018.6 mb 0.00 in0.0 mm 0.00 in0.0 mm 0.02 in0.5 mm
09:37 PM 48.0°F8.9°C 40.1°F4.5°C 74% 11.0 mph N17.7 kmh N 19.0 mph30.6 kmh 30.08 in1018.6 mb 0.00 in0.0 mm 0.00 in0.0 mm 0.02 in0.5 mm
09:47 PM 48.0°F8.9°C 39.7°F4.3°C 73% 8.1 mph N13.0 kmh N 13.0 mph20.9 kmh 30.09 in1019.0 mb 0.00 in0.0 mm 0.00 in0.0 mm 0.02 in0.5 mm
09:57 PM 47.7°F8.7°C 39.4°F4.1°C 73% 8.1 mph N13.0 kmh N 15.0 mph24.1 kmh 30.09 in1019.0 mb 0.00 in0.0 mm 0.00 in0.0 mm 0.02 in0.5 mm
10:07 PM 47.7°F8.7°C 39.4°F4.1°C 73% 8.1 mph N13.0 kmh N 13.0 mph20.9 kmh 30.09 in1019.0 mb 0.00 in0.0 mm 0.00 in0.0 mm 0.02 in0.5 mm
10:17 PM 47.7°F8.7°C 39.4°F4.1°C 73% 8.1 mph N13.0 kmh N 17.9 mph28.8 kmh 30.08 in1018.6 mb 0.00 in0.0 mm 0.00 in0.0 mm 0.02 in0.5 mm
10:27 PM 47.8°F8.8°C 39.2°F4.0°C 72% 10.1 mph N16.3 kmh N 17.9 mph28.8 kmh 30.09 in1019.0 mb 0.00 in0.0 mm 0.00 in0.0 mm 0.02 in0.5 mm
10:38 PM 47.8°F8.8°C 38.8°F3.8°C 71% 8.9 mph N14.3 kmh N 19.0 mph30.6 kmh 30.09 in1019.0 mb 0.00 in0.0 mm 0.00 in0.0 mm 0.02 in0.5 mm
10:48 PM 47.7°F8.7°C 38.7°F3.7°C 71% 8.1 mph N13.0 kmh N 16.1 mph25.9 kmh 30.08 in1018.6 mb 0.00 in0.0 mm 0.00 in0.0 mm 0.02 in0.5 mm
10:58 PM 47.7°F8.7°C 38.7°F3.7°C 71% 8.1 mph 13.0 kmh 16.1 mph25.9 kmh 30.08 in1018.6 mb 0.00 in0.0 mm 0.00 in0.0 mm 0.02 in0.5 mm
11:08 PM 47.7°F8.7°C 38.7°F3.7°C 71% 4.9 mph NE7.9 kmh NE 13.0 mph20.9 kmh 30.09 in1019.0 mb 0.00 in0.0 mm 0.00 in0.0 mm 0.02 in0.5 mm
11:18 PM 47.5°F8.6°C 38.8°F3.8°C 72% 6.9 mph NNE11.1 kmh NNE 15.0 mph24.1 kmh 30.09 in1019.0 mb 0.00 in0.0 mm 0.00 in0.0 mm 0.02 in0.5 mm
11:28 PM 47.7°F8.7°C 39.0°F3.9°C 72% 8.1 mph NW13.0 kmh NW 19.0 mph30.6 kmh 30.09 in1019.0 mb 0.00 in0.0 mm 0.00 in0.0 mm 0.02 in0.5 mm
11:38 PM 47.5°F8.6°C 38.5°F3.6°C 71% 6.9 mph N11.1 kmh N 15.0 mph24.1 kmh 30.08 in1018.6 mb 0.00 in0.0 mm 0.00 in0.0 mm 0.02 in0.5 mm
11:48 PM 47.5°F8.6°C 38.5°F3.6°C 71% 6.9 mph NW11.1 kmh NW 15.0 mph24.1 kmh 30.08 in1018.6 mb 0.00 in0.0 mm 0.00 in0.0 mm 0.02 in0.5 mm
11:58 PM 47.1°F8.4°C 38.5°F3.6°C 72% 4.9 mph N7.9 kmh N 12.1 mph19.5 kmh 30.08 in1018.6 mb 0.00 in0.0 mm 0.00 in0.0 mm 0.02 in0.5 mm